Latest Weather Observations for Latrobe Valley

IDV60801

Issued at 8:03 am EDT Wednesday 22 November 2017 (issued every 30 minutes, with the page automatically refreshed every 10 minutes)

About weather observations | Map of weather stations | Latest weather observations for VIC | Other Formats
Station Details ID: 085280 Name: LATROBE VALLEY AIRPORT Lat: -38.21 Lon: 146.47 Height: 55.7 m
Data from the previous 72 hours. | See also: Recent months at Latrobe Valley
Date/Time
EDT
Temp
°C
App
Temp
°C
Dew
Point
°C
Rel
Hum
%
Delta-T
°C
Wind Press
QNH
hPa
Press
MSL
hPa
Rain since
9am
mm
Dir  Spd
km/h
Gust
km/h
Spd
kts
Gust
kts
22/08:00am 13.5 13.0 12.7 95 0.4 E 7 13 4 7 1018.6 1018.5 14.2
22/07:46am 12.8 13.0 12.0 95 0.4 NW 2 9 1 5 1018.5 1018.4 14.2
22/07:30am 11.2 11.4 10.4 95 0.4 CALM 0 0 0 0 1018.5 1018.4 14.2
22/07:00am 9.6 8.6 8.7 94 0.4 WSW 4 7 2 4 1018.4 1018.3 14.2
22/06:30am 9.0 8.6 8.1 94 0.4 CALM 0 0 0 0 1018.4 1018.3 14.2
22/06:23am 8.7 8.1 7.6 93 0.5 CALM 0 0 0 0 1018.3 1018.2 14.2
22/06:22am 8.7 8.2 7.8 94 0.4 CALM 0 0 0 0 1018.3 1018.2 14.2
22/06:00am 8.3 7.7 7.2 93 0.5 CALM 0 0 0 0 1018.1 1018.0 14.2
22/05:30am 8.4 7.8 7.3 93 0.5 CALM 0 0 0 0 1018.0 1017.9 14.2
22/05:00am 8.9 8.4 7.8 93 0.5 CALM 0 0 0 0 1018.0 1017.9 14.2
22/04:30am 9.1 8.6 8.0 93 0.5 CALM 0 7 0 4 1017.9 1017.8 14.2
22/04:00am 10.2 10.0 9.1 93 0.5 CALM 0 2 0 1 1018.0 1017.9 14.2
22/03:30am 11.6 10.5 10.5 93 0.6 ESE 7 9 4 5 1018.1 1018.0 14.2
22/03:00am 11.5 9.9 10.2 92 0.7 ESE 9 9 5 5 1018.1 1018.0 14.2
22/02:30am 12.7 11.8 11.4 92 0.7 E 7 11 4 6 1018.2 1018.1 14.2
22/02:00am 12.9 12.0 11.5 91 0.7 ENE 7 11 4 6 1018.5 1018.4 14.2
22/01:30am 13.3 12.4 11.5 89 1.0 ENE 7 9 4 5 1018.7 1018.6 14.2
22/01:00am 14.0 12.9 12.0 88 1.1 ENE 9 11 5 6 1018.8 1018.7 14.2
22/12:30am 13.7 13.0 11.9 89 1.0 ENE 7 11 4 6 1019.1 1019.0 14.2
22/12:00am 13.3 12.0 11.2 87 1.1 NE 9 11 5 6 1019.3 1019.2 14.2
 
Date/Time
EDT
Temp
°C
App
Temp
°C
Dew
Point
°C
Rel
Hum
%
Delta-T
°C
Wind Press
QNH
hPa
Press
MSL
hPa
Rain since
9am
mm
Dir  Spd
km/h
Gust
km/h
Spd
kts
Gust
kts
21/11:30pm 13.6 12.3 11.3 86 1.2 NE 9 9 5 5 1019.6 1019.5 14.2
21/11:00pm 14.8 14.2 11.8 82 1.6 ENE 6 11 3 6 1019.8 1019.7 14.2
21/10:30pm 15.8 14.6 11.6 76 2.3 NE 9 13 5 7 1020.0 1019.9 14.2
21/10:00pm 17.9 16.4 11.9 68 3.3 ENE 11 17 6 9 1019.9 1019.8 14.2
21/09:30pm 19.1 17.1 11.4 61 4.2 ENE 13 20 7 11 1019.5 1019.4 14.2
21/09:00pm 21.0 18.8 10.8 52 5.6 ENE 13 24 7 13 1019.0 1018.9 14.2
21/08:30pm 22.7 21.0 11.1 48 6.5 ENE 11 17 6 9 1018.8 1018.7 14.2
21/08:00pm 24.0 22.7 11.3 45 7.1 E 9 13 5 7 1018.7 1018.6 14.2
21/07:30pm 25.2 23.6 11.4 42 7.8 E 11 17 6 9 1018.5 1018.4 14.2
21/07:00pm 26.4 24.5 11.7 40 8.4 E 13 17 7 9 1018.3 1018.2 14.2
21/06:30pm 25.3 28.6 19.9 72 3.5 NNW 2 6 1 3 1018.2 1018.1 14.2
21/06:00pm 23.6 27.7 20.7 84 1.9 CALM 0 6 0 3 1018.0 1017.9 14.2
21/05:30pm 22.8 26.4 19.8 83 1.9 CALM 0 0 0 0 1018.0 1017.9 14.2
21/05:00pm 21.5 23.4 18.5 83 1.9 ESE 6 9 3 5 1018.1 1018.0 14.2
21/04:30pm 21.2 21.0 17.6 80 2.2 WSW 15 20 8 11 1018.4 1018.3 14.2
21/04:00pm 21.8 21.7 16.1 70 3.4 S 11 24 6 13 1018.7 1018.6 13.2
21/03:30pm 21.3 17.9 15.8 71 3.3 NE 28 48 15 26 1019.0 1018.9 3.2
21/03:28pm 22.0 18.5 15.4 66 3.9 NE 28 48 15 26 1018.7 1018.6 1.4
21/03:27pm 22.2 19.0 15.3 65 4.1 ENE 26 48 14 26 1018.5 1018.4 0.8
21/03:22pm 26.7 25.1 15.1 49 7.0 E 17 30 9 16 1018.4 1018.3 0.0
21/03:00pm 32.5 31.5 12.2 29 12.0 SW 9 19 5 10 1018.4 1018.3 0.0
21/02:30pm 32.5 31.5 12.2 29 12.0 WNW 9 19 5 10 1018.7 1018.6 0.0
21/02:00pm 32.0 29.2 10.1 26 12.5 SW 15 24 8 13 1019.2 1019.1 0.0
21/01:30pm 31.3 30.6 13.1 33 10.9 WNW 9 20 5 11 1019.4 1019.3 0.0
21/01:00pm 30.8 29.2 12.7 33 10.7 WSW 13 20 7 11 1019.9 1019.8 0.0
21/12:30pm 29.8 28.4 12.3 34 10.3 WNW 11 19 6 10 1020.4 1020.3 0.0
21/12:00pm 29.1 28.7 12.9 37 9.5 SSW 7 15 4 8 1020.7 1020.6 0.0
21/11:30am 27.9 27.4 11.9 37 9.3 SW 6 9 3 5 1020.8 1020.7 0.0
21/11:00am 27.1 27.3 12.0 39 8.7 N 2 6 1 3 1021.0 1020.9 0.0
21/10:30am 25.1 25.1 12.3 45 7.4 WSW 4 7 2 4 1021.4 1021.3 0.0
21/10:00am 22.8 23.2 13.8 57 5.2 NW 4 7 2 4 1021.5 1021.4 0.0
21/09:30am 21.0 21.1 13.9 64 4.1 SW 6 9 3 5 1021.6 1021.5 0.0
21/09:00am 19.3 19.6 13.5 69 3.3 SW 4 9 2 5 1021.6 1021.5 0.0
21/08:30am 16.9 16.6 12.6 76 2.4 WSW 6 9 3 5 1021.7 1021.6 0.0
21/08:00am 15.5 15.7 11.9 79 1.9 WSW 2 7 1 4 1021.6 1021.5 0.0
21/07:30am 14.6 13.8 11.7 83 1.6 SW 7 9 4 5 1021.4 1021.3 0.0
21/07:00am 12.7 12.7 11.1 90 0.8 WSW 2 7 1 4 1021.2 1021.1 0.0
21/06:30am 11.8 10.7 10.5 92 0.7 W 7 7 4 4 1021.1 1021.0 0.0
21/06:00am 11.0 10.2 9.6 91 0.7 WSW 4 7 2 4 1020.8 1020.7 0.0
21/05:30am 11.3 11.3 9.9 91 0.7 CALM 0 0 0 0 1020.6 1020.5 0.0
21/05:00am 12.1 12.0 10.7 91 0.7 SE 2 7 1 4 1020.4 1020.3 0.0
21/04:30am 12.4 12.7 10.8 90 0.8 CALM 0 6 0 3 1020.4 1020.3 0.0
21/04:00am 13.1 11.9 11.5 90 0.8 ESE 9 13 5 7 1020.5 1020.4 0.0
21/03:30am 12.7 11.6 10.6 87 1.1 ESE 7 9 4 5 1020.8 1020.7 0.0
21/03:00am 13.2 11.9 11.1 87 1.1 ESE 9 11 5 6 1020.7 1020.6 0.0
21/02:30am 13.8 12.7 11.8 88 1.1 ESE 9 11 5 6 1020.7 1020.6 0.0
21/02:00am 14.1 13.4 12.1 88 1.1 ESE 7 9 4 5 1020.9 1020.8 0.0
21/01:30am 14.7 14.3 12.4 86 1.3 E 6 7 3 4 1021.2 1021.1 0.0
21/01:00am 15.0 14.5 12.5 85 1.4 E 7 13 4 7 1021.4 1021.3 0.0
21/12:30am 15.6 14.3 12.5 82 1.7 E 11 15 6 8 1021.6 1021.5 0.0
21/12:00am 15.7 14.6 12.1 79 2.0 ENE 9 13 5 7 1021.8 1021.7 0.0
 
Date/Time
EDT
Temp
°C
App
Temp
°C
Dew
Point
°C
Rel
Hum
%
Delta-T
°C
Wind Press
QNH
hPa
Press
MSL
hPa
Rain since
9am
mm
Dir  Spd
km/h
Gust
km/h
Spd
kts
Gust
kts
20/11:30pm 15.9 14.7 11.7 76 2.3 NE 9 11 5 6 1021.9 1021.8 0.0
20/11:00pm 16.0 16.2 10.7 71 2.8 CALM 0 0 0 0 1021.8 1021.7 0.0
20/10:30pm 16.2 16.0 10.3 68 3.1 SSW 2 7 1 4 1022.0 1021.9 0.0
20/10:00pm 18.6 17.7 10.7 60 4.3 E 6 7 3 4 1022.2 1022.1 0.0
20/09:30pm 18.8 17.8 10.4 58 4.5 ENE 6 9 3 5 1022.2 1022.1 0.0
20/09:00pm 19.8 18.0 11.0 57 4.8 NE 11 15 6 8 1022.0 1021.9 0.0
20/08:30pm 21.0 19.0 11.6 55 5.2 NE 13 17 7 9 1021.9 1021.8 0.0
20/08:00pm 22.8 20.5 10.6 46 6.7 ENE 13 19 7 10 1021.4 1021.3 0.0
20/07:30pm 24.1 21.1 9.3 39 8.0 ENE 15 22 8 12 1021.1 1021.0 0.0
20/07:00pm 25.7 22.7 9.1 35 9.0 ENE 15 22 8 12 1020.6 1020.5 0.0
20/06:30pm 26.8 23.4 9.2 33 9.7 E 17 26 9 14 1020.2 1020.1 0.0
20/06:00pm 28.2 25.4 11.3 35 9.7 E 17 26 9 14 1020.0 1019.9 0.0
20/05:30pm 28.8 26.4 11.4 34 10.0 ESE 15 22 8 12 1020.0 1019.9 0.0
20/05:00pm 29.2 27.0 12.2 35 9.9 SE 15 22 8 12 1019.9 1019.8 0.0
20/04:30pm 28.6 26.9 12.5 37 9.4 SE 13 22 7 12 1020.0 1019.9 0.0
20/04:00pm 28.4 26.5 13.1 39 9.0 ESE 15 24 8 13 1020.0 1019.9 0.0
20/03:30pm 29.3 27.8 14.3 40 9.1 SSE 15 24 8 13 1020.3 1020.2 0.0
20/03:00pm 28.7 27.8 14.9 43 8.4 ESE 13 24 7 13 1020.5 1020.4 0.0
20/02:30pm 30.8 30.5 14.4 36 10.0 SSE 9 15 5 8 1020.7 1020.6 0.0
20/02:00pm 31.0 30.3 14.2 36 10.2 W 11 17 6 9 1021.1 1021.0 0.0
20/01:30pm 30.4 30.0 14.1 37 9.9 SW 9 15 5 8 1021.5 1021.4 0.0
20/01:00pm 29.5 28.8 13.3 37 9.6 WSW 9 15 5 8 1021.8 1021.7 0.0
20/12:30pm 28.9 27.1 11.0 33 10.3 SW 11 17 6 9 1022.3 1022.2 0.0
20/12:00pm 28.1 27.7 15.1 45 7.9 W 11 20 6 11 1022.4 1022.3 0.0
20/11:30am 27.6 27.5 15.9 49 7.2 SW 11 22 6 12 1022.8 1022.7 0.0
20/11:00am 26.2 26.0 14.6 48 6.9 WSW 9 13 5 7 1023.1 1023.0 0.0
20/10:30am 25.1 25.1 15.1 53 6.0 SW 9 13 5 7 1023.4 1023.3 0.0
20/10:00am 23.3 23.5 14.3 57 5.3 S 6 9 3 5 1023.8 1023.8 0.0
20/09:30am 22.1 22.3 14.2 61 4.6 N 6 9 3 5 1024.0 1024.0 0.0
20/09:00am 20.9 20.6 13.4 62 4.3 ENE 7 13 4 7 1023.9 1023.9 0.0
20/08:30am 20.1 19.6 13.8 67 3.6 ENE 9 13 5 7 1023.8 1023.8 0.0
20/08:00am 18.5 19.8 14.0 75 2.6 CALM 0 7 0 4 1023.4 1023.3 0.0
20/07:30am 15.3 15.7 13.7 90 0.9 W 4 7 2 4 1023.0 1022.9 0.0
20/07:00am 13.7 14.5 12.4 92 0.7 CALM 0 0 0 0 1022.7 1022.6 0.0
20/06:30am 12.4 12.8 11.3 93 0.6 CALM 0 0 0 0 1022.3 1022.2 0.0
20/06:00am 11.7 11.9 10.4 92 0.7 CALM 0 0 0 0 1022.0 1021.9 0.0
20/05:30am 11.4 11.5 10.1 92 0.7 CALM 0 0 0 0 1021.7 1021.6 0.0
20/05:00am 11.4 11.5 10.0 91 0.7 CALM 0 0 0 0 1021.5 1021.4 0.0
20/04:30am 12.4 12.8 11.1 92 0.7 CALM 0 6 0 3 1021.2 1021.1 0.0
20/04:00am 11.4 11.4 9.8 90 0.8 CALM 0 7 0 4 1021.4 1021.3 0.0
20/03:30am 12.8 12.8 11.2 90 0.8 SSE 2 7 1 4 1021.3 1021.2 0.0
20/03:00am 13.0 13.4 11.4 90 0.8 CALM 0 0 0 0 1021.3 1021.2 0.0
20/02:30am 13.3 13.8 11.5 89 1.0 CALM 0 0 0 0 1021.4 1021.3 0.0
20/02:00am 13.3 13.6 11.0 86 1.2 CALM 0 0 0 0 1021.4 1021.3 0.0
20/01:30am 15.2 14.7 12.5 84 1.5 E 7 11 4 6 1021.4 1021.3 0.0
20/01:00am 14.7 14.9 12.0 84 1.5 NE 2 7 1 4 1021.6 1021.5 0.0
20/12:30am 15.7 16.5 12.5 81 1.8 CALM 0 6 0 3 1021.7 1021.6 0.0
20/12:00am 15.6 15.0 11.8 78 2.1 ENE 6 7 3 4 1021.7 1021.6 0.0
 
Date/Time
EDT
Temp
°C
App
Temp
°C
Dew
Point
°C
Rel
Hum
%
Delta-T
°C
Wind Press
QNH
hPa
Press
MSL
hPa
Rain since
9am
mm
Dir  Spd
km/h
Gust
km/h
Spd
kts
Gust
kts
19/11:30pm 16.8 15.9 12.5 76 2.4 ENE 9 11 5 6 1021.8 1021.7 0.0
19/11:00pm 16.1 15.4 11.3 73 2.6 NE 6 9 3 5 1021.9 1021.8 0.0
19/10:30pm 18.0 17.9 12.2 69 3.2 ENE 4 7 2 4 1021.8 1021.7 0.0
19/10:00pm 17.1 16.8 11.6 70 3.0 NE 4 7 2 4 1021.8 1021.7 0.0
19/09:30pm 19.5 20.2 12.3 63 4.0 CALM 0 0 0 0 1021.5 1021.4 0.0
19/09:00pm 20.0 20.7 12.3 61 4.3 CALM 0 0 0 0 1021.2 1021.1 0.0
19/08:30pm 21.1 20.6 12.5 58 4.9 E 7 13 4 7 1021.1 1021.0 0.0
19/08:00pm 22.7 22.0 13.2 55 5.5 E 9 13 5 7 1020.8 1020.7 0.0
19/07:30pm 24.1 23.1 13.3 51 6.3 ESE 11 17 6 9 1020.6 1020.5 0.0
19/07:00pm 24.6 23.7 13.8 51 6.3 ESE 11 19 6 10 1020.3 1020.2 0.0
19/06:30pm 25.8 24.8 13.3 46 7.3 SE 11 17 6 9 1020.3 1020.2 0.0
19/06:00pm 25.2 23.7 13.1 47 7.0 SE 13 19 7 10 1020.0 1019.9 0.0
19/05:30pm 25.8 24.8 13.3 46 7.3 SSE 11 19 6 10 1019.8 1019.7 0.0
19/05:00pm 26.6 25.2 14.4 47 7.3 SSE 15 20 8 11 1019.6 1019.5 0.0
19/04:30pm 27.0 25.1 13.0 42 8.2 S 15 20 8 11 1019.3 1019.2 0.0
19/04:00pm 27.8 26.0 13.3 40 8.6 S 15 26 8 14 1019.4 1019.3 0.0
19/03:30pm 28.1 26.3 13.2 39 8.8 SW 15 24 8 13 1019.5 1019.4 0.0
19/03:00pm 29.3 26.9 14.3 40 9.0 SW 20 26 11 14 1019.8 1019.7 0.0
19/02:30pm 28.0 26.9 14.3 43 8.2 W 13 22 7 12 1020.0 1019.9 0.0
19/02:00pm 28.2 28.5 14.4 42 8.3 SW 6 11 3 6 1020.1 1020.0 0.0
19/01:30pm 28.2 27.3 14.8 44 8.1 WSW 13 20 7 11 1020.3 1020.2 0.0
19/01:00pm 28.3 25.9 13.8 41 8.6 W 19 28 10 15 1020.5 1020.4 0.0
19/12:30pm 27.5 25.2 14.2 44 8.0 WSW 19 26 10 14 1020.8 1020.7 0.0
19/12:00pm 27.7 25.9 15.4 47 7.5 WSW 19 26 10 14 1021.1 1021.0 0.0
19/11:30am 26.5 23.8 14.6 48 7.1 WSW 22 30 12 16 1021.3 1021.2 0.0
19/11:00am 26.1 24.1 14.9 50 6.7 SW 19 30 10 16 1021.1 1021.0 0.0
19/10:30am 25.3 24.6 16.4 57 5.5 WSW 15 22 8 12 1021.0 1020.9 0.0
19/10:00am 23.4 21.7 15.7 62 4.6 WSW 19 24 10 13 1021.1 1021.0 0.0
19/09:30am 21.9 21.3 15.7 68 3.7 W 13 19 7 10 1021.0 1020.9 0.0
19/09:00am 20.5 20.7 15.7 74 2.9 W 9 13 5 7 1021.3 1021.2 0.0
19/08:30am 19.1 19.2 15.4 79 2.2 WSW 9 13 5 7 1021.1 1021.0 0.0

Other Formats:

Comma delimited format used in spreadsheet applications
http://www.bom.gov.au/fwo/IDV60801/IDV60801.94891.axf

JavaScript Object Notation format (JSON) in row-major order
http://www.bom.gov.au/fwo/IDV60801/IDV60801.94891.json